createdAt,value
2022-10-02T00:02:17.928Z,11.53
2022-10-02T00:05:43.494Z,11.55
2022-10-02T00:09:07.862Z,11.61
2022-10-02T00:12:32.075Z,11.58
2022-10-02T00:15:56.267Z,11.59
2022-10-02T00:19:19.802Z,11.57
2022-10-02T00:22:49.113Z,11.55
2022-10-02T00:26:17.558Z,11.51
2022-10-02T00:29:47.014Z,11.47
2022-10-02T00:33:19.267Z,11.40
2022-10-02T00:36:49.364Z,11.43
2022-10-02T00:40:37.120Z,11.41
2022-10-02T00:44:18.003Z,11.47
2022-10-02T00:47:49.447Z,11.48
2022-10-02T00:51:19.660Z,11.48
2022-10-02T00:55:00.255Z,11.46
2022-10-02T00:58:42.109Z,11.43
2022-10-02T01:02:12.217Z,11.39
2022-10-02T01:05:34.758Z,11.38
2022-10-02T01:08:57.646Z,11.36
2022-10-02T01:12:18.874Z,11.37
2022-10-02T01:15:45.484Z,11.37
2022-10-02T01:19:11.402Z,11.35
2022-10-02T01:22:39.728Z,11.35
2022-10-02T01:26:02.953Z,11.35
2022-10-02T01:29:24.268Z,11.36
2022-10-02T01:32:50.061Z,11.35
2022-10-02T01:36:14.725Z,11.30
2022-10-02T01:39:35.951Z,11.28
2022-10-02T01:43:01.905Z,11.31
2022-10-02T01:46:37.779Z,11.32
2022-10-02T01:50:13.325Z,11.38
2022-10-02T01:53:41.429Z,11.37
2022-10-02T01:57:10.428Z,11.39
2022-10-02T02:00:46.864Z,11.40
2022-10-02T02:04:23.319Z,11.41
2022-10-02T02:07:50.076Z,11.43
2022-10-02T02:11:14.930Z,11.44
2022-10-02T02:14:39.524Z,11.40
2022-10-02T02:18:09.823Z,11.38
2022-10-02T02:21:34.133Z,11.40
2022-10-02T02:25:00.095Z,11.45
2022-10-02T02:28:24.573Z,11.41
2022-10-02T02:31:52.001Z,11.42
2022-10-02T02:35:19.597Z,11.44
2022-10-02T02:38:46.639Z,11.40
2022-10-02T02:42:17.593Z,11.38
2022-10-02T02:45:46.425Z,11.43
2022-10-02T02:49:12.729Z,11.46
2022-10-02T02:52:42.797Z,11.46
2022-10-02T02:56:06.915Z,11.48
2022-10-02T02:59:31.403Z,11.46
2022-10-02T03:02:54.621Z,11.48
2022-10-02T03:06:33.279Z,11.48
2022-10-02T03:10:06.829Z,11.47
2022-10-02T03:13:40.887Z,11.48
2022-10-02T03:17:11.641Z,11.46
2022-10-02T03:20:42.528Z,11.43
2022-10-02T03:24:10.006Z,11.46
2022-10-02T03:27:36.881Z,11.45
2022-10-02T03:30:59.932Z,11.41
2022-10-02T03:34:21.993Z,11.43
2022-10-02T03:37:46.386Z,11.44
2022-10-02T03:41:07.790Z,11.47
2022-10-02T03:44:30.493Z,11.47
2022-10-02T03:47:51.775Z,11.49
2022-10-02T03:51:13.349Z,11.51
2022-10-02T03:54:36.767Z,11.52
2022-10-02T03:57:58.481Z,11.54
2022-10-02T04:01:26.729Z,11.52
2022-10-02T04:04:55.643Z,11.52
2022-10-02T04:08:20.025Z,11.52
2022-10-02T04:11:46.144Z,11.53
2022-10-02T04:15:15.883Z,11.52
2022-10-02T04:18:48.727Z,11.50
2022-10-02T04:22:17.506Z,11.49
2022-10-02T04:25:43.763Z,11.43
2022-10-02T04:29:13.307Z,11.40
2022-10-02T04:32:36.191Z,11.37
2022-10-02T04:36:08.952Z,11.32
2022-10-02T04:39:53.031Z,11.26
2022-10-02T04:43:24.960Z,11.22
2022-10-02T04:47:04.652Z,11.19
2022-10-02T04:50:45.086Z,11.17
2022-10-02T04:54:27.423Z,11.09
2022-10-02T04:58:23.007Z,11.06
2022-10-02T05:02:03.066Z,11.05
2022-10-02T05:05:38.323Z,11.04
2022-10-02T05:09:08.700Z,11.03
2022-10-02T05:12:46.957Z,11.02
2022-10-02T05:16:32.738Z,11.03
2022-10-02T05:20:12.520Z,11.04
2022-10-02T05:24:04.070Z,10.99
2022-10-02T05:27:51.451Z,10.98
2022-10-02T05:31:24.733Z,10.96
2022-10-02T05:35:02.196Z,10.96
2022-10-02T05:38:40.081Z,10.96
2022-10-02T05:42:08.599Z,10.95
2022-10-02T05:45:36.745Z,10.92
2022-10-02T05:49:00.183Z,10.90
2022-10-02T05:52:38.557Z,10.80
2022-10-02T05:56:05.788Z,10.84
2022-10-02T05:59:37.621Z,10.86
2022-10-02T06:03:12.694Z,10.85
2022-10-02T06:06:39.547Z,10.86
2022-10-02T06:10:07.901Z,10.85
2022-10-02T06:13:37.237Z,10.88
2022-10-02T06:17:04.757Z,10.93
2022-10-02T06:20:33.663Z,10.94
2022-10-02T06:23:59.691Z,10.97
2022-10-02T06:27:29.238Z,10.97
2022-10-02T06:30:56.505Z,11.03
2022-10-02T06:34:18.252Z,11.07
2022-10-02T06:37:55.192Z,11.14
2022-10-02T06:41:25.234Z,11.15
2022-10-02T06:44:59.245Z,11.18
2022-10-02T06:48:26.880Z,11.23
2022-10-02T06:52:00.490Z,11.27
2022-10-02T06:55:41.205Z,11.34
2022-10-02T06:59:15.240Z,11.41
2022-10-02T07:03:17.393Z,11.47
2022-10-02T07:06:47.733Z,11.57
2022-10-02T07:10:22.860Z,11.63
2022-10-02T07:13:57.606Z,11.70
2022-10-02T07:17:31.108Z,11.76
2022-10-02T07:20:59.995Z,11.83
2022-10-02T07:24:43.632Z,11.91
2022-10-02T07:28:14.546Z,12.01
2022-10-02T07:31:51.515Z,12.07
2022-10-02T07:35:38.450Z,12.14
2022-10-02T07:39:12.472Z,12.19
2022-10-02T07:42:51.119Z,12.23
2022-10-02T07:46:18.084Z,12.27
2022-10-02T07:49:51.803Z,12.32
2022-10-02T07:53:24.798Z,12.40
2022-10-02T07:56:50.088Z,12.42
2022-10-02T08:00:15.028Z,12.51
2022-10-02T08:03:41.163Z,12.56
2022-10-02T08:07:06.456Z,12.58
2022-10-02T08:10:33.663Z,12.63
2022-10-02T08:13:58.471Z,12.66
2022-10-02T08:17:30.499Z,12.68
2022-10-02T08:20:52.066Z,12.70
2022-10-02T08:24:18.323Z,12.77
2022-10-02T08:27:51.197Z,12.78
2022-10-02T08:31:14.466Z,12.81
2022-10-02T08:34:36.186Z,12.88
2022-10-02T08:38:21.493Z,12.93
2022-10-02T08:42:20.108Z,13.00
2022-10-02T08:46:10.658Z,13.06
2022-10-02T08:50:07.713Z,13.11
2022-10-02T08:53:58.270Z,13.17
2022-10-02T08:57:45.411Z,13.17
2022-10-02T09:01:21.904Z,13.16
2022-10-02T09:05:21.795Z,13.20
2022-10-02T09:09:28.475Z,13.19
2022-10-02T09:13:19.102Z,13.22
2022-10-02T09:17:02.472Z,13.29
2022-10-02T09:20:42.770Z,13.29
2022-10-02T09:24:48.964Z,13.34
2022-10-02T09:28:46.340Z,13.40
2022-10-02T09:32:43.216Z,13.43
2022-10-02T09:36:45.798Z,13.43
2022-10-02T09:40:41.142Z,13.52
2022-10-02T09:44:28.456Z,13.58
2022-10-02T09:48:15.162Z,13.59
2022-10-02T09:52:17.092Z,13.62
2022-10-02T09:56:24.052Z,13.59
2022-10-02T10:00:18.117Z,13.58
2022-10-02T10:04:17.602Z,13.54
2022-10-02T10:07:56.123Z,13.50
2022-10-02T10:11:55.109Z,13.39
2022-10-02T10:15:56.091Z,13.19
2022-10-02T10:19:59.497Z,13.17
2022-10-02T10:23:37.489Z,13.11
2022-10-02T10:27:43.107Z,13.02
2022-10-02T10:31:45.990Z,12.88
2022-10-02T10:35:26.980Z,12.73
2022-10-02T10:38:52.393Z,12.71
2022-10-02T10:43:05.973Z,12.72
2022-10-02T10:46:54.126Z,12.74
2022-10-02T10:50:35.824Z,12.70
2022-10-02T10:54:29.441Z,12.73
2022-10-02T10:58:15.162Z,12.77
2022-10-02T11:01:52.060Z,12.79
2022-10-02T11:05:40.594Z,12.80
2022-10-02T11:09:37.954Z,12.82
2022-10-02T11:13:15.823Z,12.85
2022-10-02T11:17:04.582Z,12.90
2022-10-02T11:20:41.714Z,12.93
2022-10-02T11:24:34.109Z,13.00
2022-10-02T11:28:25.548Z,13.03
2022-10-02T11:32:02.911Z,13.11
2022-10-02T11:35:38.253Z,13.15
2022-10-02T11:39:17.291Z,13.25
2022-10-02T11:42:55.983Z,13.27
2022-10-02T11:46:37.649Z,13.32
2022-10-02T11:50:33.788Z,13.43
2022-10-02T11:54:20.756Z,13.52
2022-10-02T11:57:51.285Z,13.58
2022-10-02T12:01:22.521Z,13.67
2022-10-02T12:05:05.941Z,13.72
2022-10-02T12:08:42.880Z,13.79
2022-10-02T12:12:24.593Z,13.90
2022-10-02T12:15:57.915Z,13.97
2022-10-02T12:19:31.690Z,14.02
2022-10-02T12:23:21.086Z,14.12
2022-10-02T12:27:03.894Z,14.21
2022-10-02T12:30:32.974Z,14.25
2022-10-02T12:34:01.196Z,14.22
2022-10-02T12:37:31.647Z,14.30
2022-10-02T12:41:08.613Z,14.24
2022-10-02T12:44:48.997Z,14.29
2022-10-02T12:48:32.255Z,14.33
2022-10-02T12:52:10.490Z,14.36
2022-10-02T12:55:56.962Z,14.50
2022-10-02T12:59:31.313Z,14.52
2022-10-02T13:03:40.804Z,14.58
2022-10-02T13:07:30.171Z,14.59
2022-10-02T13:11:03.642Z,14.71
2022-10-02T13:14:41.859Z,14.80
2022-10-02T13:18:27.008Z,14.87
2022-10-02T13:21:58.921Z,14.92
2022-10-02T13:25:34.495Z,14.92
2022-10-02T13:29:18.164Z,14.98
2022-10-02T13:32:55.093Z,15.09
2022-10-02T13:36:25.097Z,15.18
2022-10-02T13:40:05.269Z,15.25
2022-10-02T13:43:40.912Z,15.33
2022-10-02T13:47:26.344Z,15.32
2022-10-02T13:50:55.466Z,15.33
2022-10-02T13:54:39.233Z,15.23
2022-10-02T13:58:20.706Z,15.12
2022-10-02T14:01:56.909Z,15.11
2022-10-02T14:05:31.859Z,15.16
2022-10-02T14:09:10.792Z,15.21
2022-10-02T14:12:46.616Z,15.11
2022-10-02T14:16:18.423Z,15.06
2022-10-02T14:20:03.781Z,15.14
2022-10-02T14:23:55.254Z,15.17
2022-10-02T14:27:41.633Z,15.21
2022-10-02T14:31:26.529Z,15.16
2022-10-02T14:35:35.659Z,15.26
2022-10-02T14:39:26.230Z,15.23
2022-10-02T14:43:07.468Z,15.27
2022-10-02T14:46:41.433Z,15.34
2022-10-02T14:50:25.253Z,15.32
2022-10-02T14:53:58.927Z,15.42
2022-10-02T14:57:37.637Z,15.39
2022-10-02T15:01:18.713Z,15.31
2022-10-02T15:04:51.105Z,15.19
2022-10-02T15:08:16.515Z,15.21
2022-10-02T15:11:54.334Z,15.12
2022-10-02T15:15:23.659Z,15.16
2022-10-02T15:18:50.387Z,15.13
2022-10-02T15:22:20.158Z,15.14
2022-10-02T15:26:07.439Z,15.05
2022-10-02T15:29:39.735Z,15.19
2022-10-02T15:33:16.033Z,15.59
2022-10-02T15:36:53.296Z,15.59
2022-10-02T15:40:38.717Z,15.70
2022-10-02T15:44:10.434Z,15.98
2022-10-02T15:47:42.364Z,16.26
2022-10-02T15:51:17.283Z,16.43
2022-10-02T15:54:55.181Z,16.41
2022-10-02T15:58:27.948Z,16.08
2022-10-02T16:02:03.640Z,15.82
2022-10-02T16:05:38.472Z,15.72
2022-10-02T16:09:40.775Z,15.55
2022-10-02T16:13:29.352Z,15.34
2022-10-02T16:17:10.659Z,15.19
2022-10-02T16:20:56.604Z,15.06
2022-10-02T16:24:49.661Z,15.02
2022-10-02T16:28:23.855Z,14.98
2022-10-02T16:32:05.670Z,14.87
2022-10-02T16:35:51.811Z,14.81
2022-10-02T16:39:39.842Z,14.77
2022-10-02T16:43:36.815Z,14.75
2022-10-02T16:47:08.462Z,14.73
2022-10-02T16:50:42.155Z,14.70
2022-10-02T16:54:15.149Z,14.65
2022-10-02T16:57:54.727Z,14.60
2022-10-02T17:01:27.654Z,14.55
2022-10-02T17:05:03.140Z,14.48
2022-10-02T17:08:32.883Z,14.39
2022-10-02T17:12:03.754Z,14.34
2022-10-02T17:15:33.261Z,14.26
2022-10-02T17:18:58.807Z,14.16
2022-10-02T17:22:33.138Z,14.07
2022-10-02T17:26:02.801Z,13.97
2022-10-02T17:29:29.021Z,13.89
2022-10-02T17:33:05.602Z,13.80
2022-10-02T17:36:37.007Z,13.70
2022-10-02T17:40:06.700Z,13.60
2022-10-02T17:43:39.032Z,13.53
2022-10-02T17:47:38.646Z,13.43
2022-10-02T17:51:51.168Z,13.35
2022-10-02T17:55:44.706Z,13.24
2022-10-02T17:59:27.673Z,13.15
2022-10-02T18:03:18.756Z,13.07
2022-10-02T18:06:52.458Z,13.01
2022-10-02T18:10:25.699Z,12.93
2022-10-02T18:13:59.629Z,12.88
2022-10-02T18:17:30.405Z,12.80
2022-10-02T18:21:01.276Z,12.76
2022-10-02T18:24:44.760Z,12.69
2022-10-02T18:28:21.646Z,12.67
2022-10-02T18:32:00.159Z,12.63
2022-10-02T18:35:32.177Z,12.61
2022-10-02T18:39:00.355Z,12.56
2022-10-02T18:42:40.001Z,12.54
2022-10-02T18:46:13.517Z,12.50
2022-10-02T18:49:58.341Z,12.47
2022-10-02T18:53:47.336Z,12.44
2022-10-02T18:57:28.823Z,12.42
2022-10-02T19:01:08.357Z,12.40
2022-10-02T19:04:55.379Z,12.36
2022-10-02T19:08:24.279Z,12.34
2022-10-02T19:11:48.302Z,12.33
2022-10-02T19:15:21.731Z,12.30
2022-10-02T19:18:44.833Z,12.30
2022-10-02T19:22:16.569Z,12.27
2022-10-02T19:25:38.092Z,12.27
2022-10-02T19:29:06.476Z,12.27
2022-10-02T19:32:32.463Z,12.23
2022-10-02T19:35:55.800Z,12.23
2022-10-02T19:39:21.493Z,12.20
2022-10-02T19:42:49.335Z,12.18
2022-10-02T19:46:12.659Z,12.14
2022-10-02T19:49:39.442Z,12.12
2022-10-02T19:53:06.928Z,12.13
2022-10-02T19:56:34.325Z,12.12
2022-10-02T19:59:56.036Z,12.09
2022-10-02T20:03:21.210Z,12.06
2022-10-02T20:06:44.164Z,12.05
2022-10-02T20:10:15.266Z,12.04
2022-10-02T20:13:44.765Z,12.02
2022-10-02T20:17:10.188Z,12.02
2022-10-02T20:20:32.188Z,12.00
2022-10-02T20:23:58.241Z,11.99
2022-10-02T20:27:30.402Z,11.97
2022-10-02T20:30:56.425Z,11.94
2022-10-02T20:34:26.550Z,11.90
2022-10-02T20:37:50.643Z,11.86
2022-10-02T20:41:18.441Z,11.82
2022-10-02T20:44:42.651Z,11.79
2022-10-02T20:49:03.559Z,11.74
2022-10-02T20:52:49.101Z,11.71
2022-10-02T20:56:23.552Z,11.70
2022-10-02T21:00:15.030Z,11.68
2022-10-02T21:07:51.280Z,11.64
2022-10-02T21:11:21.967Z,11.63
2022-10-02T21:15:04.155Z,11.61
2022-10-02T21:19:12.847Z,11.58
2022-10-02T21:23:00.104Z,11.58
2022-10-02T21:27:07.919Z,11.52
2022-10-02T21:30:41.808Z,11.50
2022-10-02T21:34:15.488Z,11.46
2022-10-02T21:37:53.724Z,11.47
2022-10-02T21:41:53.953Z,11.41
2022-10-02T21:45:51.817Z,11.39
2022-10-02T21:49:45.152Z,11.39
2022-10-02T21:53:50.678Z,11.34
2022-10-02T21:57:40.043Z,11.29
2022-10-02T22:01:30.278Z,11.27
2022-10-02T22:05:27.181Z,11.27
2022-10-02T22:09:17.624Z,11.22
2022-10-02T22:12:52.534Z,11.17
2022-10-02T22:16:30.200Z,11.14
2022-10-02T22:20:10.698Z,11.12
2022-10-02T22:24:01.183Z,11.10
2022-10-02T22:27:45.753Z,11.08
2022-10-02T22:31:35.114Z,11.07
2022-10-02T22:35:08.384Z,11.06
2022-10-02T22:38:34.243Z,11.04
2022-10-02T22:42:01.738Z,11.04
2022-10-02T22:45:31.812Z,11.00
2022-10-02T22:49:00.273Z,11.02
2022-10-02T22:52:27.562Z,10.99
2022-10-02T22:55:53.069Z,10.97
2022-10-02T22:59:23.979Z,10.97
2022-10-02T23:02:51.907Z,10.98
2022-10-02T23:06:22.788Z,10.95
2022-10-02T23:09:51.612Z,10.92
2022-10-02T23:13:17.844Z,10.88
2022-10-02T23:16:48.149Z,10.84
2022-10-02T23:20:16.959Z,10.80
2022-10-02T23:23:50.864Z,10.80
2022-10-02T23:27:16.892Z,10.76
2022-10-02T23:30:45.194Z,10.74
2022-10-02T23:34:20.150Z,10.70
2022-10-02T23:37:48.732Z,10.66
2022-10-02T23:41:33.711Z,10.67
2022-10-02T23:45:04.081Z,10.68
2022-10-02T23:48:25.477Z,10.70
2022-10-02T23:51:55.100Z,10.68
2022-10-02T23:55:55.018Z,10.69
2022-10-02T23:59:36.204Z,10.68
